Time;durP1;ratioP1;P1;durP2;ratioP2;P2;SDS_P1;SDS_P2;PMS_P1;PMS_P2;Temp;Humidity;BMP_temperature;BMP_pressure;BME280_temperature;BME280_humidity;BME280_pressure;Samples;Min_cycle;Max_cycle;Signal;HPM_P1;HPM_P2
2021/10/03 00:01:55;;;;;;;0.52;0.40;;;;;;;;;;5081417;28;20031;-86
2021/10/03 00:04:21;;;;;;;0.77;0.50;;;;;;;;;;5074847;28;20463;-85
2021/10/03 00:06:46;;;;;;;2.33;0.30;;;;;;;;;;5074684;28;20031;-86
2021/10/03 00:09:11;;;;;;;0.75;0.40;;;;;;;;;;5074749;28;20418;-86
2021/10/03 00:11:37;;;;;;;1.92;0.50;;;;;;;;;;5074728;28;20506;-86
2021/10/03 00:14:02;;;;;;;0.60;0.40;;;;;;;;;;5074483;28;20345;-86
2021/10/03 00:16:28;;;;;;;0.55;0.40;;;;;;;;;;5074711;28;20460;-86
2021/10/03 00:18:54;;;;;;;1.88;0.40;;;;;;;;;;5092862;28;20020;-86
2021/10/03 00:21:19;;;;;;;1.40;0.47;;;;;;;;;;5074542;28;20070;-87
2021/10/03 00:23:44;;;;;;;0.43;0.40;;;;;;;;;;5074692;28;20543;-86
2021/10/03 00:26:09;;;;;;;0.30;0.20;;;;;;;;;;5074577;28;20471;-87
2021/10/03 00:28:34;;;;;;;0.68;0.40;;;;;;;;;;5074771;28;20058;-87
2021/10/03 00:31:00;;;;;;;1.05;0.43;;;;;;;;;;5077605;28;20028;-87
2021/10/03 00:33:26;;;;;;;1.40;0.50;;;;;;;;;;5093138;28;20024;-86
2021/10/03 00:35:52;;;;;;;0.70;0.40;;;;;;;;;;5074494;28;20031;-87
2021/10/03 00:38:17;;;;;;;0.90;0.47;;;;;;;;;;5074240;28;20020;-86
2021/10/03 00:40:43;;;;;;;1.85;0.55;;;;;;;;;;5074614;28;20043;-86
2021/10/03 00:43:08;;;;;;;0.60;0.30;;;;;;;;;;5074408;28;20051;-86
2021/10/03 00:45:36;;;;;;;0.75;0.40;;;;;;;;;;5074264;28;20031;-86
2021/10/03 00:48:02;;;;;;;0.63;0.50;;;;;;;;;;5075045;28;20028;-87
2021/10/03 00:50:28;;;;;;;1.33;0.50;;;;;;;;;;5096139;28;20085;-86
2021/10/03 00:52:53;;;;;;;0.60;0.38;;;;;;;;;;5078097;28;20023;-87
2021/10/03 00:55:20;;;;;;;1.48;0.50;;;;;;;;;;5077844;28;20022;-86
2021/10/03 00:57:46;;;;;;;0.40;0.30;;;;;;;;;;5096481;28;20077;-86
2021/10/03 01:00:13;;;;;;;0.40;0.30;;;;;;;;;;5077525;28;20028;-87
2021/10/03 01:02:39;;;;;;;0.80;0.43;;;;;;;;;;5078041;28;20020;-87
2021/10/03 01:05:07;;;;;;;1.98;0.40;;;;;;;;;;5078665;28;20032;-86
2021/10/03 01:07:32;;;;;;;0.77;0.45;;;;;;;;;;5078011;28;20034;-87
2021/10/03 01:09:57;;;;;;;1.48;0.60;;;;;;;;;;5077729;28;20036;-86
2021/10/03 01:12:22;;;;;;;0.73;0.50;;;;;;;;;;5074195;28;20024;-86
2021/10/03 01:14:48;;;;;;;2.17;0.60;;;;;;;;;;5085507;28;20016;-86
2021/10/03 01:17:13;;;;;;;0.60;0.50;;;;;;;;;;5065564;28;20020;-86
2021/10/03 01:19:38;;;;;;;0.80;0.40;;;;;;;;;;5075607;28;20055;-86
2021/10/03 01:22:04;;;;;;;1.15;0.47;;;;;;;;;;5077545;28;20020;-87
2021/10/03 01:24:32;;;;;;;1.80;0.60;;;;;;;;;;5077300;28;20020;-85
2021/10/03 01:26:57;;;;;;;0.80;0.50;;;;;;;;;;5077616;28;20467;-86
2021/10/03 01:29:23;;;;;;;0.93;0.47;;;;;;;;;;5077228;28;20028;-86
2021/10/03 01:31:48;;;;;;;0.68;0.30;;;;;;;;;;5082726;28;20115;-86
2021/10/03 01:34:13;;;;;;;0.45;0.40;;;;;;;;;;5087570;28;20474;-87
2021/10/03 01:36:38;;;;;;;0.80;0.50;;;;;;;;;;5086070;28;20383;-87
2021/10/03 01:39:03;;;;;;;0.65;0.40;;;;;;;;;;5095421;28;20509;-87
2021/10/03 01:41:29;;;;;;;0.30;0.30;;;;;;;;;;5077139;28;20031;-86
2021/10/03 01:43:54;;;;;;;2.58;0.50;;;;;;;;;;5077221;28;20479;-86
2021/10/03 01:46:19;;;;;;;3.70;0.50;;;;;;;;;;5076685;28;20417;-87
2021/10/03 01:48:46;;;;;;;1.48;0.50;;;;;;;;;;5076825;28;20038;-87
2021/10/03 01:51:11;;;;;;;1.20;0.30;;;;;;;;;;5095146;28;20012;-87
2021/10/03 01:53:39;;;;;;;0.73;0.32;;;;;;;;;;5072951;28;20019;-87
2021/10/03 01:56:05;;;;;;;0.77;0.30;;;;;;;;;;5085190;28;20048;-86
2021/10/03 01:58:33;;;;;;;1.45;0.45;;;;;;;;;;5080474;28;20031;-86
2021/10/03 02:01:02;;;;;;;1.35;0.45;;;;;;;;;;5076405;28;20074;-87
2021/10/03 02:03:27;;;;;;;2.47;0.40;;;;;;;;;;5076877;28;20487;-86
2021/10/03 02:05:52;;;;;;;0.30;0.20;;;;;;;;;;5094639;28;20019;-86
2021/10/03 02:08:18;;;;;;;0.90;0.40;;;;;;;;;;5076777;28;20024;-87
2021/10/03 02:10:45;;;;;;;0.22;0.22;;;;;;;;;;5076367;28;20024;-87
2021/10/03 02:13:11;;;;;;;1.35;0.60;;;;;;;;;;5076394;28;20027;-86
2021/10/03 02:15:40;;;;;;;1.23;0.50;;;;;;;;;;5074199;28;20102;-86
2021/10/03 02:18:06;;;;;;;1.65;0.90;;;;;;;;;;5077597;28;20058;-86
2021/10/03 02:20:32;;;;;;;0.90;0.70;;;;;;;;;;5094593;28;20020;-85
2021/10/03 02:22:57;;;;;;;1.00;0.60;;;;;;;;;;5094905;28;20410;-86
2021/10/03 02:25:22;;;;;;;0.60;0.50;;;;;;;;;;5076457;28;20028;-86
2021/10/03 02:27:48;;;;;;;2.80;0.50;;;;;;;;;;5076044;28;20028;-86
2021/10/03 02:30:13;;;;;;;3.83;0.75;;;;;;;;;;5075944;28;20046;-86
2021/10/03 02:32:38;;;;;;;1.50;1.00;;;;;;;;;;5087355;28;20693;-86
2021/10/03 02:35:06;;;;;;;2.08;0.43;;;;;;;;;;5076928;28;20028;-86
2021/10/03 02:37:31;;;;;;;1.42;1.05;;;;;;;;;;5076234;28;20031;-86
2021/10/03 02:39:57;;;;;;;1.67;1.23;;;;;;;;;;5076009;28;20032;-86
2021/10/03 02:42:22;;;;;;;2.75;1.27;;;;;;;;;;5111907;27;20344;-86
2021/10/03 02:44:48;;;;;;;2.75;1.55;;;;;;;;;;5109435;28;20043;-86
2021/10/03 02:47:13;;;;;;;2.88;1.50;;;;;;;;;;5075971;28;20394;-86
2021/10/03 02:49:39;;;;;;;1.70;1.17;;;;;;;;;;5075926;28;20474;-87
2021/10/03 02:52:05;;;;;;;4.88;1.25;;;;;;;;;;5076853;28;20028;-86
2021/10/03 02:54:30;;;;;;;3.33;1.27;;;;;;;;;;5079569;28;20096;-86
2021/10/03 02:56:55;;;;;;;9.18;1.80;;;;;;;;;;5079439;28;20028;-86
2021/10/03 02:59:20;;;;;;;5.32;1.90;;;;;;;;;;5109790;28;20467;-87
2021/10/03 03:01:45;;;;;;;3.95;1.98;;;;;;;;;;5080585;28;20035;-86
2021/10/03 03:04:11;;;;;;;2.75;1.50;;;;;;;;;;5095309;28;20020;-86
2021/10/03 03:06:36;;;;;;;1.70;0.82;;;;;;;;;;5076589;28;20059;-87
2021/10/03 03:09:01;;;;;;;5.68;2.13;;;;;;;;;;5093462;28;20024;-86
2021/10/03 03:11:26;;;;;;;3.45;1.77;;;;;;;;;;5075009;28;20020;-86
2021/10/03 03:13:52;;;;;;;4.40;1.63;;;;;;;;;;5075232;28;20016;-86
2021/10/03 03:16:17;;;;;;;4.25;1.92;;;;;;;;;;5075148;28;20028;-87
2021/10/03 03:18:43;;;;;;;1.35;0.82;;;;;;;;;;5109534;28;20016;-86
2021/10/03 03:21:08;;;;;;;3.75;1.38;;;;;;;;;;5075273;28;20169;-86
2021/10/03 03:23:34;;;;;;;2.88;1.80;;;;;;;;;;5082555;28;20055;-86
2021/10/03 03:25:59;;;;;;;2.85;1.70;;;;;;;;;;5075171;28;20048;-86
2021/10/03 03:28:24;;;;;;;3.88;1.75;;;;;;;;;;5075286;28;20043;-86
2021/10/03 03:30:49;;;;;;;5.28;2.50;;;;;;;;;;5074754;28;20023;-86
2021/10/03 03:33:15;;;;;;;7.97;2.50;;;;;;;;;;5075220;28;20024;-86
2021/10/03 03:35:40;;;;;;;4.38;2.10;;;;;;;;;;5093334;28;20116;-86
2021/10/03 03:38:05;;;;;;;4.82;2.88;;;;;;;;;;5075159;28;20020;-87
2021/10/03 03:40:31;;;;;;;4.43;2.45;;;;;;;;;;5075024;28;20531;-86
2021/10/03 03:42:56;;;;;;;6.88;2.38;;;;;;;;;;5093437;28;20031;-86
2021/10/03 03:45:21;;;;;;;5.97;2.78;;;;;;;;;;5075013;28;20530;-86
2021/10/03 03:47:46;;;;;;;4.47;2.60;;;;;;;;;;5075139;28;20027;-86
2021/10/03 03:50:12;;;;;;;5.10;2.90;;;;;;;;;;5092748;28;20050;-86
2021/10/03 03:52:41;;;;;;;5.28;3.40;;;;;;;;;;5074924;28;20054;-87
2021/10/03 03:55:07;;;;;;;4.50;2.22;;;;;;;;;;5074879;28;20028;-87
2021/10/03 03:57:32;;;;;;;5.68;2.75;;;;;;;;;;5074940;28;20468;-87
2021/10/03 03:59:57;;;;;;;4.50;1.73;;;;;;;;;;5074706;28;20475;-87
2021/10/03 04:02:23;;;;;;;2.13;1.17;;;;;;;;;;5075005;28;20471;-86
2021/10/03 04:04:48;;;;;;;2.58;1.60;;;;;;;;;;5074611;28;20016;-87
2021/10/03 04:07:13;;;;;;;3.30;1.80;;;;;;;;;;5108689;28;20093;-87
2021/10/03 04:09:38;;;;;;;4.47;1.73;;;;;;;;;;5074922;28;20541;-86
2021/10/03 04:12:04;;;;;;;2.83;1.48;;;;;;;;;;5092840;28;20020;-87
2021/10/03 04:14:29;;;;;;;2.42;1.60;;;;;;;;;;5074729;28;20024;-87
2021/10/03 04:16:54;;;;;;;4.03;1.80;;;;;;;;;;5083451;28;20023;-87
2021/10/03 04:19:19;;;;;;;5.70;1.50;;;;;;;;;;5074794;28;20074;-86
2021/10/03 04:21:45;;;;;;;2.95;1.65;;;;;;;;;;5094077;28;20021;-86
2021/10/03 04:24:10;;;;;;;2.42;1.67;;;;;;;;;;5078532;28;20055;-87
2021/10/03 04:26:35;;;;;;;3.63;1.60;;;;;;;;;;5078717;28;20019;-87
2021/10/03 04:29:00;;;;;;;2.78;1.50;;;;;;;;;;5078626;28;20012;-87
2021/10/03 04:31:26;;;;;;;3.10;1.60;;;;;;;;;;5078638;28;20013;-87
2021/10/03 04:33:51;;;;;;;2.83;1.30;;;;;;;;;;5078783;28;20050;-88
2021/10/03 04:36:16;;;;;;;3.42;1.40;;;;;;;;;;5112294;28;20040;-87
2021/10/03 04:38:42;;;;;;;7.93;1.60;;;;;;;;;;5084255;28;20454;-87
2021/10/03 04:41:07;;;;;;;4.88;1.70;;;;;;;;;;5083628;28;20032;-88
2021/10/03 04:43:32;;;;;;;3.85;1.60;;;;;;;;;;5112246;28;20089;-88
2021/10/03 04:45:57;;;;;;;3.92;1.45;;;;;;;;;;5096278;28;20024;-87
2021/10/03 04:48:23;;;;;;;5.68;1.40;;;;;;;;;;5091969;28;20054;-88
2021/10/03 04:50:48;;;;;;;4.32;2.17;;;;;;;;;;5097043;28;20832;-88
2021/10/03 04:53:13;;;;;;;6.18;3.00;;;;;;;;;;5078059;28;20104;-88
2021/10/03 04:55:41;;;;;;;8.77;2.65;;;;;;;;;;5077807;28;20053;-87
2021/10/03 04:58:06;;;;;;;7.03;2.85;;;;;;;;;;5085928;28;20470;-87
2021/10/03 05:00:32;;;;;;;5.53;2.40;;;;;;;;;;5078187;28;20157;-87
2021/10/03 05:02:57;;;;;;;7.43;2.70;;;;;;;;;;5079349;28;20059;-88
2021/10/03 05:05:22;;;;;;;7.13;2.85;;;;;;;;;;5077537;28;20012;-88
2021/10/03 05:07:48;;;;;;;7.85;3.30;;;;;;;;;;5078177;28;20111;-88
2021/10/03 05:10:13;;;;;;;6.45;2.70;;;;;;;;;;5091630;28;20019;-88
2021/10/03 05:12:38;;;;;;;9.00;3.40;;;;;;;;;;5111865;28;20433;-88
2021/10/03 05:15:04;;;;;;;7.25;3.88;;;;;;;;;;5095473;28;20061;-88
2021/10/03 05:17:30;;;;;;;12.45;3.97;;;;;;;;;;5077504;28;20012;-88
2021/10/03 05:19:55;;;;;;;7.22;3.88;;;;;;;;;;5077683;28;20020;-87
2021/10/03 05:22:22;;;;;;;8.32;3.97;;;;;;;;;;5078638;28;20018;-88
2021/10/03 05:24:47;;;;;;;6.53;3.55;;;;;;;;;;5077669;28;20103;-88
2021/10/03 05:27:12;;;;;;;6.32;3.53;;;;;;;;;;5077785;28;20050;-87
2021/10/03 05:29:37;;;;;;;5.45;3.20;;;;;;;;;;5094926;28;20115;-88
2021/10/03 05:32:03;;;;;;;8.93;2.90;;;;;;;;;;5111241;28;20020;-87
2021/10/03 05:34:28;;;;;;;5.47;3.38;;;;;;;;;;5076707;28;20024;-88
2021/10/03 05:36:53;;;;;;;5.93;3.22;;;;;;;;;;5111208;28;20532;-88
2021/10/03 05:39:18;;;;;;;10.70;3.22;;;;;;;;;;5095723;28;20024;-87
2021/10/03 05:41:44;;;;;;;7.57;3.63;;;;;;;;;;5076703;28;20016;-88
2021/10/03 05:44:09;;;;;;;6.93;3.42;;;;;;;;;;5095253;28;20352;-88
2021/10/03 05:46:34;;;;;;;7.32;2.97;;;;;;;;;;5095114;28;20016;-87
2021/10/03 05:48:59;;;;;;;5.60;3.08;;;;;;;;;;5077018;28;20028;-88
2021/10/03 05:51:24;;;;;;;6.55;3.60;;;;;;;;;;5110758;28;20020;-88
2021/10/03 05:53:50;;;;;;;7.97;3.60;;;;;;;;;;5078121;28;20020;-88
2021/10/03 05:56:15;;;;;;;9.73;4.15;;;;;;;;;;5076746;28;20023;-88
2021/10/03 05:58:40;;;;;;;6.28;2.80;;;;;;;;;;5094636;28;20023;-88
2021/10/03 06:01:06;;;;;;;2.28;1.25;;;;;;;;;;5094963;28;20126;-87
2021/10/03 06:03:31;;;;;;;9.18;4.53;;;;;;;;;;5076957;28;20442;-88
2021/10/03 06:05:56;;;;;;;8.63;4.65;;;;;;;;;;5076738;28;20391;-88
2021/10/03 06:08:21;;;;;;;12.55;4.55;;;;;;;;;;5077186;28;20054;-88
2021/10/03 06:10:47;;;;;;;7.82;4.25;;;;;;;;;;5077893;28;20161;-88
2021/10/03 06:13:12;;;;;;;10.27;5.03;;;;;;;;;;5075902;28;20107;-88
2021/10/03 06:15:43;;;;;;;7.18;4.13;;;;;;;;;;5075188;28;20031;-88
2021/10/03 06:18:09;;;;;;;9.63;5.13;;;;;;;;;;5076419;28;20026;-89
2021/10/03 06:20:34;;;;;;;11.23;4.57;;;;;;;;;;5076230;28;20383;-89
2021/10/03 06:23:00;;;;;;;6.45;4.07;;;;;;;;;;5076505;28;20024;-89
2021/10/03 06:25:25;;;;;;;7.28;4.00;;;;;;;;;;5076029;28;20360;-87
2021/10/03 06:27:50;;;;;;;8.48;4.28;;;;;;;;;;5076960;28;20024;-87
2021/10/03 06:30:15;;;;;;;8.23;4.65;;;;;;;;;;5076263;28;20023;-87
2021/10/03 06:32:41;;;;;;;7.97;3.40;;;;;;;;;;5075555;28;20104;-87
2021/10/03 06:35:06;;;;;;;6.78;3.58;;;;;;;;;;5075786;28;20020;-88
2021/10/03 06:37:31;;;;;;;8.82;3.80;;;;;;;;;;5076222;28;20016;-88
2021/10/03 06:39:57;;;;;;;6.68;3.75;;;;;;;;;;5075655;28;20472;-87
2021/10/03 06:42:22;;;;;;;7.55;3.60;;;;;;;;;;5076047;28;20466;-88
2021/10/03 06:44:47;;;;;;;6.45;3.20;;;;;;;;;;5075387;28;20050;-87
2021/10/03 06:47:12;;;;;;;4.88;2.58;;;;;;;;;;5082450;28;20079;-88
2021/10/03 06:49:38;;;;;;;7.93;3.13;;;;;;;;;;5079956;28;20045;-87
2021/10/03 06:52:03;;;;;;;3.28;1.80;;;;;;;;;;5075852;28;20023;-87
2021/10/03 06:54:29;;;;;;;3.40;1.80;;;;;;;;;;5075885;28;20031;-87
2021/10/03 06:56:54;;;;;;;4.78;1.95;;;;;;;;;;5075219;28;20512;-87
2021/10/03 06:59:20;;;;;;;4.95;1.80;;;;;;;;;;5075473;28;20031;-88
2021/10/03 07:01:45;;;;;;;1.85;1.10;;;;;;;;;;5109584;28;20062;-88
2021/10/03 07:04:11;;;;;;;3.55;1.35;;;;;;;;;;5109446;28;20024;-87
2021/10/03 07:06:36;;;;;;;2.88;1.63;;;;;;;;;;5075153;28;20046;-87
2021/10/03 07:09:01;;;;;;;8.18;2.72;;;;;;;;;;5076339;28;20067;-87
2021/10/03 07:11:27;;;;;;;5.20;3.25;;;;;;;;;;5075709;28;20016;-88
2021/10/03 07:13:52;;;;;;;3.60;2.40;;;;;;;;;;5075394;28;20016;-88
2021/10/03 07:16:17;;;;;;;2.70;1.20;;;;;;;;;;5075225;28;20016;-87
2021/10/03 07:18:43;;;;;;;2.17;0.90;;;;;;;;;;5093587;28;20016;-88
2021/10/03 07:21:08;;;;;;;1.90;0.90;;;;;;;;;;5093650;28;20028;-88
2021/10/03 07:23:33;;;;;;;1.67;0.68;;;;;;;;;;5080931;28;20466;-88
2021/10/03 07:25:58;;;;;;;1.55;0.80;;;;;;;;;;5078618;28;20024;-87
2021/10/03 07:28:24;;;;;;;1.38;0.80;;;;;;;;;;5076585;28;20161;-88
2021/10/03 07:30:49;;;;;;;1.52;0.95;;;;;;;;;;5098369;28;20028;-87
2021/10/03 07:33:17;;;;;;;1.98;1.00;;;;;;;;;;5075253;28;20532;-88
2021/10/03 07:35:42;;;;;;;3.15;1.40;;;;;;;;;;5075262;28;20023;-88
2021/10/03 07:38:07;;;;;;;3.80;1.88;;;;;;;;;;5093311;28;20016;-88
2021/10/03 07:40:33;;;;;;;2.63;1.90;;;;;;;;;;5075077;28;20052;-88
2021/10/03 07:42:58;;;;;;;3.67;1.75;;;;;;;;;;5093158;28;20020;-88
2021/10/03 07:45:23;;;;;;;2.92;1.73;;;;;;;;;;5074883;28;20020;-87
2021/10/03 07:47:48;;;;;;;3.38;1.77;;;;;;;;;;5093035;28;20489;-87
2021/10/03 07:50:14;;;;;;;2.95;1.80;;;;;;;;;;5075308;28;20028;-87
2021/10/03 07:52:39;;;;;;;2.70;1.70;;;;;;;;;;5075369;28;20016;-87
2021/10/03 07:55:05;;;;;;;1.77;1.13;;;;;;;;;;5074606;28;20035;-87
2021/10/03 07:57:30;;;;;;;2.15;1.40;;;;;;;;;;5108620;28;20008;-88
2021/10/03 07:59:55;;;;;;;1.17;1.00;;;;;;;;;;5092909;28;20470;-87
2021/10/03 08:02:20;;;;;;;1.52;0.90;;;;;;;;;;5092566;28;20020;-87
2021/10/03 08:04:46;;;;;;;2.13;1.27;;;;;;;;;;5108587;28;20020;-87
2021/10/03 08:07:11;;;;;;;1.45;1.00;;;;;;;;;;5074642;28;20054;-87
2021/10/03 08:09:36;;;;;;;2.03;0.90;;;;;;;;;;5084999;28;20024;-87
2021/10/03 08:12:02;;;;;;;1.55;1.20;;;;;;;;;;5075521;28;20016;-87
2021/10/03 08:14:28;;;;;;;1.65;1.30;;;;;;;;;;5073352;28;20471;-87
2021/10/03 08:16:53;;;;;;;5.82;0.93;;;;;;;;;;5072487;28;20058;-87
2021/10/03 08:19:18;;;;;;;1.33;0.90;;;;;;;;;;5073067;28;20081;-88
2021/10/03 08:21:43;;;;;;;2.00;1.00;;;;;;;;;;5072916;28;20521;-88
2021/10/03 08:24:09;;;;;;;1.95;0.85;;;;;;;;;;5072918;28;20024;-88
2021/10/03 08:26:35;;;;;;;1.80;0.70;;;;;;;;;;5106434;28;20043;-88
2021/10/03 08:29:00;;;;;;;1.17;0.80;;;;;;;;;;5074213;28;20016;-88
2021/10/03 08:31:25;;;;;;;1.63;0.98;;;;;;;;;;5074306;28;20034;-87
2021/10/03 08:33:51;;;;;;;1.55;0.85;;;;;;;;;;5092528;28;20012;-88
2021/10/03 08:36:16;;;;;;;1.60;1.13;;;;;;;;;;5073886;28;20023;-87
2021/10/03 08:38:41;;;;;;;1.33;0.73;;;;;;;;;;5073796;28;20024;-87
2021/10/03 08:41:06;;;;;;;1.90;1.02;;;;;;;;;;5074433;28;20459;-87
2021/10/03 08:43:32;;;;;;;2.38;1.30;;;;;;;;;;5074454;28;20019;-87
2021/10/03 08:45:57;;;;;;;2.10;1.08;;;;;;;;;;5074193;28;20035;-87
2021/10/03 08:48:23;;;;;;;2.17;1.30;;;;;;;;;;5074541;28;20032;-87
2021/10/03 08:50:49;;;;;;;4.32;1.40;;;;;;;;;;5074137;28;20064;-87
2021/10/03 08:53:15;;;;;;;2.33;1.33;;;;;;;;;;5092054;28;20464;-88
2021/10/03 08:55:40;;;;;;;2.65;1.50;;;;;;;;;;5074420;28;20024;-87
2021/10/03 08:58:05;;;;;;;5.82;1.80;;;;;;;;;;5073473;28;20529;-88
2021/10/03 09:00:30;;;;;;;3.20;1.60;;;;;;;;;;5108043;28;20019;-87
2021/10/03 09:03:06;;;;;;;3.00;1.50;;;;;;;;;;5074330;28;20114;-88
2021/10/03 09:05:33;;;;;;;2.65;1.65;;;;;;;;;;5074431;28;20027;-87
2021/10/03 09:08:06;;;;;;;2.45;1.30;;;;;;;;;;5074234;28;20042;-87
2021/10/03 09:10:43;;;;;;;2.40;1.38;;;;;;;;;;5095262;28;20534;-87
2021/10/03 09:13:08;;;;;;;2.95;1.38;;;;;;;;;;5095467;28;20027;-88
2021/10/03 09:15:33;;;;;;;6.88;2.08;;;;;;;;;;5077294;28;20016;-87
2021/10/03 09:17:58;;;;;;;2.60;1.33;;;;;;;;;;5077748;28;20463;-87
2021/10/03 09:20:25;;;;;;;3.53;1.50;;;;;;;;;;5077369;28;20028;-88
2021/10/03 09:22:53;;;;;;;3.67;1.55;;;;;;;;;;5077526;28;20023;-87
2021/10/03 09:25:37;;;;;;;2.78;1.50;;;;;;;;;;5077511;28;20116;-88
2021/10/03 09:28:04;;;;;;;4.60;2.72;;;;;;;;;;5077563;28;20475;-87
2021/10/03 09:30:29;;;;;;;3.78;1.83;;;;;;;;;;5077509;28;20020;-87
2021/10/03 09:32:56;;;;;;;2.15;1.33;;;;;;;;;;5095221;28;20015;-87
2021/10/03 09:35:25;;;;;;;1.75;1.15;;;;;;;;;;5078419;28;20027;-87
2021/10/03 09:37:51;;;;;;;2.30;1.25;;;;;;;;;;5076634;28;20020;-87
2021/10/03 09:40:16;;;;;;;1.65;1.20;;;;;;;;;;5077118;28;20024;-87
2021/10/03 09:42:52;;;;;;;2.38;1.48;;;;;;;;;;5111080;28;20034;-87
2021/10/03 09:45:21;;;;;;;2.38;1.70;;;;;;;;;;5070954;28;20059;-87
2021/10/03 09:47:56;;;;;;;2.70;1.92;;;;;;;;;;5095118;28;20020;-87
2021/10/03 09:50:22;;;;;;;4.80;2.40;;;;;;;;;;5064381;28;20051;-88
2021/10/03 09:52:47;;;;;;;3.42;2.15;;;;;;;;;;5077088;28;20073;-87
2021/10/03 09:55:14;;;;;;;2.50;1.75;;;;;;;;;;5076910;28;20058;-87
2021/10/03 09:57:39;;;;;;;7.13;2.17;;;;;;;;;;5095507;28;20111;-88
2021/10/03 10:00:05;;;;;;;4.22;2.63;;;;;;;;;;5076119;28;20055;-87
2021/10/03 10:02:31;;;;;;;3.75;1.98;;;;;;;;;;5076834;28;20020;-87
2021/10/03 10:04:56;;;;;;;5.70;2.20;;;;;;;;;;5110554;28;20534;-87
2021/10/03 10:07:21;;;;;;;4.20;1.98;;;;;;;;;;5095080;28;20112;-87
2021/10/03 10:09:47;;;;;;;3.47;2.05;;;;;;;;;;5076893;28;20114;-87
2021/10/03 10:12:14;;;;;;;4.70;2.33;;;;;;;;;;5110581;28;20023;-87
2021/10/03 10:14:45;;;;;;;5.18;1.90;;;;;;;;;;5094286;28;20016;-87
2021/10/03 10:17:25;;;;;;;2.83;1.88;;;;;;;;;;5076567;28;20008;-88
2021/10/03 10:19:50;;;;;;;3.58;1.90;;;;;;;;;;5101996;28;20020;-88
2021/10/03 10:22:19;;;;;;;3.33;1.75;;;;;;;;;;5075653;28;20074;-87
2021/10/03 10:24:45;;;;;;;2.72;1.98;;;;;;;;;;5071981;28;20045;-87
2021/10/03 10:27:29;;;;;;;2.42;1.70;;;;;;;;;;5076116;28;20521;-87
2021/10/03 10:29:54;;;;;;;3.58;2.08;;;;;;;;;;5075277;28;20062;-88
2021/10/03 10:32:22;;;;;;;2.85;1.60;;;;;;;;;;5076170;28;20020;-90
2021/10/03 10:35:06;;;;;;;3.47;2.22;;;;;;;;;;5075579;28;20008;-88
2021/10/03 10:37:50;;;;;;;3.65;2.03;;;;;;;;;;5079834;28;20483;-88
2021/10/03 10:40:22;;;;;;;2.53;1.70;;;;;;;;;;5077795;28;20063;-88
2021/10/03 10:43:13;;;;;;;3.57;2.03;;;;;;;;;;5091615;28;20455;-88
2021/10/03 10:45:41;;;;;;;4.57;1.77;;;;;;;;;;5074698;28;20028;-87
2021/10/03 10:48:06;;;;;;;3.60;2.13;;;;;;;;;;5075598;28;20028;-87
2021/10/03 10:50:32;;;;;;;3.35;2.20;;;;;;;;;;5075519;28;20107;-87
2021/10/03 10:53:16;;;;;;;5.45;3.20;;;;;;;;;;5075622;28;20023;-87
2021/10/03 10:55:42;;;;;;;5.43;2.92;;;;;;;;;;5075890;28;20047;-87
2021/10/03 10:58:08;;;;;;;3.83;1.98;;;;;;;;;;5070509;28;20046;-87
2021/10/03 11:00:45;;;;;;;6.28;3.28;;;;;;;;;;5075647;28;20020;-87
2021/10/03 11:03:10;;;;;;;5.22;2.83;;;;;;;;;;5095888;28;20447;-87
2021/10/03 11:05:47;;;;;;;7.30;3.30;;;;;;;;;;5097366;28;20099;-87
2021/10/03 11:08:13;;;;;;;5.38;2.90;;;;;;;;;;5068795;28;20107;-87
2021/10/03 11:11:00;;;;;;;6.03;3.15;;;;;;;;;;5075323;28;20055;-87
2021/10/03 11:13:38;;;;;;;4.75;2.63;;;;;;;;;;5075336;28;20105;-88
2021/10/03 11:16:21;;;;;;;5.53;2.88;;;;;;;;;;5075162;28;20036;-87
2021/10/03 11:18:54;;;;;;;4.97;3.17;;;;;;;;;;5074455;28;20027;-87
2021/10/03 11:21:28;;;;;;;5.63;3.20;;;;;;;;;;5075562;28;20034;-87
2021/10/03 11:23:54;;;;;;;7.95;3.58;;;;;;;;;;5077821;28;20035;-87
2021/10/03 11:26:21;;;;;;;6.80;3.50;;;;;;;;;;5075281;28;20115;-87
2021/10/03 11:28:51;;;;;;;5.43;2.92;;;;;;;;;;5076147;28;20020;-87
2021/10/03 11:31:35;;;;;;;4.95;2.63;;;;;;;;;;5074831;28;20106;-88
2021/10/03 11:34:00;;;;;;;6.13;2.70;;;;;;;;;;5074932;28;20016;-87
2021/10/03 11:36:26;;;;;;;3.55;2.22;;;;;;;;;;5075051;28;20024;-87
2021/10/03 11:38:51;;;;;;;5.45;2.97;;;;;;;;;;5074583;28;20024;-87
2021/10/03 11:41:16;;;;;;;5.57;2.67;;;;;;;;;;5074935;28;20035;-87
2021/10/03 11:43:41;;;;;;;5.28;2.75;;;;;;;;;;5093128;28;20038;-87
2021/10/03 11:46:07;;;;;;;4.30;2.28;;;;;;;;;;5068923;28;20055;-87
2021/10/03 11:48:32;;;;;;;3.65;2.05;;;;;;;;;;5074922;28;20131;-87
2021/10/03 11:50:57;;;;;;;5.00;2.53;;;;;;;;;;5092666;28;20040;-87
2021/10/03 11:53:25;;;;;;;4.80;2.25;;;;;;;;;;5074679;28;20070;-87
2021/10/03 11:55:52;;;;;;;9.05;2.28;;;;;;;;;;5074408;28;20020;-87
2021/10/03 11:58:18;;;;;;;3.78;2.33;;;;;;;;;;5092772;28;20020;-87
2021/10/03 12:00:47;;;;;;;4.50;2.38;;;;;;;;;;5077804;28;20018;-87
2021/10/03 12:03:15;;;;;;;3.60;2.33;;;;;;;;;;5079951;28;20023;-87
2021/10/03 12:05:40;;;;;;;5.03;2.25;;;;;;;;;;5074543;28;20054;-88
2021/10/03 12:08:07;;;;;;;6.50;2.92;;;;;;;;;;5074793;28;20052;-87
2021/10/03 12:10:34;;;;;;;5.10;2.47;;;;;;;;;;5074378;28;20511;-87
2021/10/03 12:12:59;;;;;;;5.38;2.90;;;;;;;;;;5093000;28;20475;-87
2021/10/03 12:15:40;;;;;;;3.75;2.58;;;;;;;;;;5074287;28;20016;-87
2021/10/03 12:18:10;;;;;;;5.60;2.38;;;;;;;;;;5074829;28;20016;-87
2021/10/03 12:20:53;;;;;;;4.03;2.22;;;;;;;;;;5073619;28;20019;-87
2021/10/03 12:23:20;;;;;;;5.18;2.10;;;;;;;;;;5079147;28;20043;-87
2021/10/03 12:25:47;;;;;;;2.28;1.48;;;;;;;;;;5069492;28;20375;-87
2021/10/03 12:28:12;;;;;;;3.67;1.80;;;;;;;;;;5074782;28;20035;-87
2021/10/03 12:30:48;;;;;;;3.00;1.60;;;;;;;;;;5073584;28;20016;-87
2021/10/03 12:33:13;;;;;;;2.03;1.13;;;;;;;;;;5077983;28;20031;-86
2021/10/03 12:35:39;;;;;;;1.27;0.88;;;;;;;;;;5083056;28;20468;-87
2021/10/03 12:38:04;;;;;;;1.58;1.05;;;;;;;;;;5075308;28;20012;-87
2021/10/03 12:40:29;;;;;;;2.42;1.45;;;;;;;;;;5073533;28;20024;-87
2021/10/03 12:42:56;;;;;;;1.85;1.20;;;;;;;;;;5074181;28;20020;-88
2021/10/03 12:45:21;;;;;;;2.38;1.52;;;;;;;;;;5095136;28;20077;-87
2021/10/03 12:47:46;;;;;;;2.67;1.27;;;;;;;;;;5078684;28;20024;-87
2021/10/03 12:50:12;;;;;;;1.88;1.40;;;;;;;;;;5077917;28;20495;-87
2021/10/03 12:52:37;;;;;;;1.63;1.38;;;;;;;;;;5078241;28;20190;-87
2021/10/03 12:55:03;;;;;;;1.83;1.17;;;;;;;;;;5077662;28;20055;-86
2021/10/03 12:57:28;;;;;;;2.45;1.60;;;;;;;;;;5084341;28;20024;-87
2021/10/03 12:59:53;;;;;;;4.22;1.27;;;;;;;;;;5077754;28;20471;-87
2021/10/03 13:02:18;;;;;;;1.67;1.15;;;;;;;;;;5111611;28;20494;-87
2021/10/03 13:04:43;;;;;;;2.05;1.13;;;;;;;;;;5096689;28;20095;-87
2021/10/03 13:07:09;;;;;;;2.45;1.30;;;;;;;;;;5095173;28;20028;-87
2021/10/03 13:09:35;;;;;;;2.65;1.70;;;;;;;;;;5077621;28;20027;-86
2021/10/03 13:12:00;;;;;;;2.10;1.48;;;;;;;;;;5092963;28;20755;-86
2021/10/03 13:14:25;;;;;;;1.63;1.27;;;;;;;;;;5076522;28;20150;-87
2021/10/03 13:16:51;;;;;;;2.33;1.50;;;;;;;;;;5076463;28;20028;-87
2021/10/03 13:19:16;;;;;;;2.00;1.23;;;;;;;;;;5076465;28;20415;-87
2021/10/03 13:21:42;;;;;;;4.00;1.27;;;;;;;;;;5076315;28;20023;-86
2021/10/03 13:24:07;;;;;;;3.03;1.50;;;;;;;;;;5077065;28;20111;-86
2021/10/03 13:26:33;;;;;;;3.13;1.60;;;;;;;;;;5076187;28;20016;-86
2021/10/03 13:28:58;;;;;;;3.58;1.60;;;;;;;;;;5076874;28;20028;-86
2021/10/03 13:31:23;;;;;;;1.63;1.17;;;;;;;;;;5093897;28;20024;-87
2021/10/03 13:33:49;;;;;;;3.20;1.40;;;;;;;;;;5076340;28;20070;-86
2021/10/03 13:36:14;;;;;;;3.45;1.30;;;;;;;;;;5076155;28;20070;-86
2021/10/03 13:38:39;;;;;;;1.20;0.70;;;;;;;;;;5110651;28;20055;-86
2021/10/03 13:41:05;;;;;;;1.48;0.82;;;;;;;;;;5076588;28;20020;-86
2021/10/03 13:43:32;;;;;;;1.50;1.00;;;;;;;;;;5083917;28;20387;-85
2021/10/03 13:45:57;;;;;;;1.55;0.80;;;;;;;;;;5077447;28;20483;-85
2021/10/03 13:48:22;;;;;;;1.55;1.00;;;;;;;;;;5076102;28;20061;-85
2021/10/03 13:50:47;;;;;;;1.75;1.00;;;;;;;;;;5110310;28;20020;-85
2021/10/03 13:53:12;;;;;;;1.08;0.80;;;;;;;;;;5075917;28;20031;-85
2021/10/03 13:55:39;;;;;;;2.13;1.00;;;;;;;;;;5093572;28;20039;-86
2021/10/03 13:58:04;;;;;;;1.17;1.00;;;;;;;;;;5076583;28;20043;-85
2021/10/03 14:00:33;;;;;;;6.03;1.00;;;;;;;;;;5075536;28;20690;-85
2021/10/03 14:02:58;;;;;;;3.90;1.02;;;;;;;;;;5076066;28;20629;-85
2021/10/03 14:05:24;;;;;;;1.85;1.00;;;;;;;;;;5109804;28;20039;-85
2021/10/03 14:07:49;;;;;;;1.15;0.77;;;;;;;;;;5076384;28;20020;-85
2021/10/03 14:10:16;;;;;;;2.30;0.90;;;;;;;;;;5075685;28;20072;-85
2021/10/03 14:12:42;;;;;;;1.05;0.70;;;;;;;;;;5070384;28;20024;-86
2021/10/03 14:15:07;;;;;;;1.27;0.50;;;;;;;;;;5093798;28;20027;-85
2021/10/03 14:17:32;;;;;;;0.88;0.55;;;;;;;;;;5075418;28;20360;-85
2021/10/03 14:19:57;;;;;;;1.27;0.70;;;;;;;;;;5075994;28;20119;-85
2021/10/03 14:22:23;;;;;;;0.80;0.52;;;;;;;;;;5088194;28;20020;-85
2021/10/03 14:24:48;;;;;;;2.45;0.80;;;;;;;;;;5076196;28;20023;-85
2021/10/03 14:27:13;;;;;;;0.77;0.50;;;;;;;;;;5073741;28;20027;-85
2021/10/03 14:29:39;;;;;;;2.53;0.63;;;;;;;;;;5076238;28;20028;-85
2021/10/03 14:32:05;;;;;;;2.90;0.90;;;;;;;;;;5076220;28;20036;-85
2021/10/03 14:34:30;;;;;;;4.70;0.90;;;;;;;;;;5093549;28;20461;-85
2021/10/03 14:36:55;;;;;;;5.80;1.20;;;;;;;;;;5093886;28;20023;-85
2021/10/03 14:39:21;;;;;;;4.07;1.10;;;;;;;;;;5075057;28;20024;-86